Terminal Aerodrome Forecast
Issued by NWS Nashville, TN

Home | Current Version | Previous Version | Text Only | Print | Product List | Glossary On
Versions: 1 2 3 4 5 6 7 8 9 10 11 12 13 14 15 16 17 18 19 20
000
FTUS44 KOHX 021120
TAFCSV
TAF
KCSV 021120Z 0212/0312 VRB03KT P6SM VCSH OVC060
      TEMPO 0220/0224 5SM -TSRA OVC025CB
     FM030200 30003KT 5SM BR OVC015
     FM030600 32004KT 5SM BR OVC007=

USA.gov is the U.S. government's official web portal to all federal, state and local government web resources and services.